createdAt,value
2022-09-11T00:00:59.592Z,100529.13
2022-09-11T00:06:12.429Z,100529.84
2022-09-11T00:08:47.059Z,100534.03
2022-09-11T00:11:18.720Z,100534.09
2022-09-11T00:13:50.500Z,100516.06
2022-09-11T00:16:27.036Z,100515.38
2022-09-11T00:18:58.738Z,100523.94
2022-09-11T00:21:29.183Z,100522.19
2022-09-11T00:23:58.687Z,100528.25
2022-09-11T00:26:28.696Z,100533.25
2022-09-11T00:29:01.412Z,100535.81
2022-09-11T00:31:34.048Z,100527.13
2022-09-11T00:34:03.280Z,100532.94
2022-09-11T00:36:35.305Z,100527.72
2022-09-11T00:39:10.194Z,100531.03
2022-09-11T00:41:41.971Z,100533.56
2022-09-11T00:44:46.193Z,100525.78
2022-09-11T00:47:19.622Z,100521.44
2022-09-11T00:49:57.213Z,100523.13
2022-09-11T00:52:35.716Z,100505.53
2022-09-11T00:55:09.507Z,100525.47
2022-09-11T00:57:46.456Z,100526.31
2022-09-11T01:00:16.468Z,100527.00
2022-09-11T01:02:50.945Z,100532.19
2022-09-11T01:05:26.723Z,100525.16
2022-09-11T01:08:03.339Z,100528.53
2022-09-11T01:10:45.907Z,100505.16
2022-09-11T01:13:24.364Z,100528.50
2022-09-11T01:16:03.396Z,100532.72
2022-09-11T01:18:40.760Z,100520.66
2022-09-11T01:21:38.117Z,100514.50
2022-09-11T01:24:23.582Z,100528.22
2022-09-11T01:27:07.123Z,100529.13
2022-09-11T01:29:44.791Z,100533.53
2022-09-11T01:32:22.967Z,100522.31
2022-09-11T01:34:59.833Z,100525.59
2022-09-11T01:37:37.931Z,100530.59
2022-09-11T01:40:18.457Z,100523.75
2022-09-11T01:45:46.777Z,100523.50
2022-09-11T01:48:28.573Z,100518.28
2022-09-11T01:50:58.437Z,100514.94
2022-09-11T01:53:33.836Z,100509.53
2022-09-11T01:56:07.791Z,100514.47
2022-09-11T01:58:41.003Z,100501.28
2022-09-11T02:01:19.341Z,100509.94
2022-09-11T02:03:56.334Z,100508.47
2022-09-11T02:06:32.791Z,100511.75
2022-09-11T02:09:09.872Z,100504.81
2022-09-11T02:11:42.703Z,100509.25
2022-09-11T02:14:22.451Z,100503.34
2022-09-11T02:16:55.704Z,100505.00
2022-09-11T02:19:27.951Z,100518.63
2022-09-11T02:21:58.258Z,100508.66
2022-09-11T02:24:29.141Z,100512.03
2022-09-11T02:27:02.595Z,100508.50
2022-09-11T02:29:33.984Z,100514.31
2022-09-11T02:32:05.784Z,100509.16
2022-09-11T02:34:38.086Z,100522.78
2022-09-11T02:37:18.298Z,100514.28
2022-09-11T02:40:06.297Z,100511.75
2022-09-11T02:43:04.601Z,100497.91
2022-09-11T02:45:45.877Z,100505.75
2022-09-11T02:48:34.353Z,100504.84
2022-09-11T02:51:16.618Z,100501.41
2022-09-11T02:53:53.718Z,100503.97
2022-09-11T02:56:35.821Z,100499.66
2022-09-11T02:59:11.564Z,100510.88
2022-09-11T03:01:58.241Z,100501.53
2022-09-11T03:04:31.435Z,100499.09
2022-09-11T03:07:01.806Z,100499.25
2022-09-11T03:09:41.678Z,100493.31
2022-09-11T03:12:21.976Z,100497.72
2022-09-11T03:14:52.856Z,100487.53
2022-09-11T03:17:30.004Z,100497.13
2022-09-11T03:20:01.269Z,100498.22
2022-09-11T03:22:32.532Z,100494.94
2022-09-11T03:25:01.809Z,100489.22
2022-09-11T03:27:33.357Z,100491.97
2022-09-11T03:30:02.717Z,100483.53
2022-09-11T03:32:32.700Z,100489.75
2022-09-11T03:35:03.952Z,100480.25
2022-09-11T03:37:34.183Z,100482.19
2022-09-11T03:40:04.375Z,100484.81
2022-09-11T03:42:34.122Z,100478.94
2022-09-11T03:45:03.657Z,100486.78
2022-09-11T03:47:33.984Z,100482.63
2022-09-11T03:50:05.013Z,100483.50
2022-09-11T03:52:40.702Z,100475.06
2022-09-11T03:55:10.444Z,100471.59
2022-09-11T03:57:40.420Z,100474.25
2022-09-11T04:00:15.133Z,100477.00
2022-09-11T04:02:50.176Z,100471.22
2022-09-11T04:05:34.368Z,100480.03
2022-09-11T04:08:04.155Z,100479.41
2022-09-11T04:10:35.072Z,100470.84
2022-09-11T04:13:05.323Z,100481.44
2022-09-11T04:15:42.289Z,100476.41
2022-09-11T04:18:11.422Z,100479.06
2022-09-11T04:20:49.126Z,100478.31
2022-09-11T04:23:18.287Z,100476.78
2022-09-11T04:25:52.913Z,100477.84
2022-09-11T04:28:22.016Z,100483.19
2022-09-11T04:30:51.306Z,100475.63
2022-09-11T04:33:21.803Z,100475.00
2022-09-11T04:35:58.503Z,100472.66
2022-09-11T04:38:28.281Z,100448.59
2022-09-11T04:41:02.418Z,100468.72
2022-09-11T04:43:32.949Z,100471.44
2022-09-11T04:46:04.927Z,100473.28
2022-09-11T04:48:39.999Z,100431.94
2022-09-11T04:51:11.783Z,100459.66
2022-09-11T04:53:46.041Z,100471.81
2022-09-11T04:56:15.661Z,100470.22
2022-09-11T04:58:53.682Z,100475.41
2022-09-11T05:01:35.034Z,100472.03
2022-09-11T05:04:04.821Z,100471.28
2022-09-11T05:06:37.485Z,100473.94
2022-09-11T05:09:12.633Z,100463.69
2022-09-11T05:11:41.979Z,100469.81
2022-09-11T05:14:13.575Z,100470.78
2022-09-11T05:16:45.018Z,100468.22
2022-09-11T05:19:15.113Z,100466.50
2022-09-11T05:21:48.318Z,100457.97
2022-09-11T05:24:18.102Z,100471.84
2022-09-11T05:26:47.180Z,100464.94
2022-09-11T05:29:28.322Z,100453.75
2022-09-11T05:32:13.005Z,100460.72
2022-09-11T05:34:43.853Z,100462.41
2022-09-11T05:37:22.086Z,100467.59
2022-09-11T05:39:51.573Z,100462.47
2022-09-11T05:42:21.736Z,100466.78
2022-09-11T05:44:59.566Z,100457.38
2022-09-11T05:47:33.378Z,100466.13
2022-09-11T05:50:03.245Z,100438.59
2022-09-11T05:52:34.717Z,100465.44
2022-09-11T05:55:04.558Z,100457.75
2022-09-11T05:57:34.627Z,100456.09
2022-09-11T06:00:05.395Z,100456.13
2022-09-11T06:02:39.268Z,100448.44
2022-09-11T06:05:08.837Z,100450.19
2022-09-11T06:07:39.976Z,100445.94
2022-09-11T06:10:11.189Z,100445.94
2022-09-11T06:12:40.407Z,100440.75
2022-09-11T06:17:51.059Z,100449.41
2022-09-11T06:20:20.101Z,100421.81
2022-09-11T06:23:07.321Z,100435.56
2022-09-11T06:25:39.017Z,100433.81
2022-09-11T06:28:08.727Z,100421.72
2022-09-11T06:31:06.078Z,100411.34
2022-09-11T06:33:43.915Z,100444.03
2022-09-11T06:36:16.870Z,100411.19
2022-09-11T06:38:56.649Z,100440.34
2022-09-11T06:41:28.805Z,100442.00
2022-09-11T06:44:04.724Z,100431.53
2022-09-11T06:46:36.194Z,100412.50
2022-09-11T06:49:06.051Z,100435.66
2022-09-11T06:51:40.940Z,100427.81
2022-09-11T06:54:12.787Z,100431.19
2022-09-11T06:56:41.901Z,100424.97
2022-09-11T06:59:11.725Z,100429.19
2022-09-11T07:01:46.475Z,100418.69
2022-09-11T07:04:16.391Z,100423.81
2022-09-11T07:06:46.734Z,100421.84
2022-09-11T07:09:20.053Z,100423.34
2022-09-11T07:11:53.752Z,100420.47
2022-09-11T07:14:24.639Z,100408.94
2022-09-11T07:17:00.423Z,100398.41
2022-09-11T07:19:29.763Z,100412.75
2022-09-11T07:22:01.079Z,100411.81
2022-09-11T07:24:32.723Z,100406.53
2022-09-11T07:27:02.126Z,100390.13
2022-09-11T07:29:36.014Z,100384.94
2022-09-11T07:32:05.442Z,100393.72
2022-09-11T07:34:34.449Z,100391.28
2022-09-11T07:37:07.906Z,100386.84
2022-09-11T07:39:41.337Z,100380.78
2022-09-11T07:42:23.791Z,100385.13
2022-09-11T07:44:53.781Z,100374.72
2022-09-11T07:47:22.861Z,100373.00
2022-09-11T07:49:58.070Z,100372.94
2022-09-11T07:52:27.487Z,100366.78
2022-09-11T07:55:03.442Z,100371.78
2022-09-11T07:57:35.849Z,100358.56
2022-09-11T08:00:16.121Z,100363.59
2022-09-11T08:02:51.149Z,100362.81
2022-09-11T08:05:33.206Z,100328.50
2022-09-11T08:08:02.851Z,100366.25
2022-09-11T08:10:38.446Z,100361.91
2022-09-11T08:13:09.571Z,100352.66
2022-09-11T08:15:47.241Z,100352.53
2022-09-11T08:18:16.845Z,100361.00
2022-09-11T08:20:46.947Z,100357.38
2022-09-11T08:23:18.993Z,100353.63
2022-09-11T08:25:50.581Z,100357.63
2022-09-11T08:28:20.105Z,100344.31
2022-09-11T08:30:50.681Z,100337.94
2022-09-11T08:33:20.762Z,100333.47
2022-09-11T08:35:49.860Z,100333.53
2022-09-11T08:38:19.811Z,100326.94
2022-09-11T08:40:51.267Z,100337.22
2022-09-11T08:43:24.317Z,100331.28
2022-09-11T08:46:00.822Z,100329.53
2022-09-11T08:48:37.222Z,100321.91
2022-09-11T08:51:07.425Z,100326.94
2022-09-11T08:53:36.747Z,100325.94
2022-09-11T08:56:13.996Z,100323.03
2022-09-11T08:59:03.980Z,100324.44
2022-09-11T09:01:41.863Z,100319.38
2022-09-11T09:04:40.990Z,100315.03
2022-09-11T09:07:28.179Z,100288.97
2022-09-11T09:10:08.562Z,100309.22
2022-09-11T09:12:48.663Z,100309.66
2022-09-11T09:15:32.145Z,100299.25
2022-09-11T09:18:05.131Z,100311.09
2022-09-11T09:20:37.799Z,100308.50
2022-09-11T09:23:16.952Z,100305.75
2022-09-11T09:25:48.621Z,100312.84
2022-09-11T09:28:24.455Z,100307.66
2022-09-11T09:30:57.125Z,100299.25
2022-09-11T09:33:34.258Z,100300.91
2022-09-11T09:36:17.067Z,100305.13
2022-09-11T09:38:53.551Z,100291.81
2022-09-11T09:41:45.141Z,100306.88
2022-09-11T09:44:25.907Z,100288.78
2022-09-11T09:46:57.693Z,100301.59
2022-09-11T09:49:35.004Z,100299.59
2022-09-11T09:52:18.794Z,100298.47
2022-09-11T09:54:56.634Z,100294.25
2022-09-11T09:57:36.292Z,100292.63
2022-09-11T10:00:17.084Z,100295.50
2022-09-11T10:02:49.024Z,100302.81
2022-09-11T10:05:21.670Z,100288.41
2022-09-11T10:07:53.235Z,100303.72
2022-09-11T10:10:28.743Z,100301.84
2022-09-11T10:13:18.132Z,100282.28
2022-09-11T10:15:51.384Z,100297.69
2022-09-11T10:18:25.161Z,100291.81
2022-09-11T10:20:55.909Z,100292.59
2022-09-11T10:23:27.029Z,100294.53
2022-09-11T10:25:56.509Z,100298.72
2022-09-11T10:28:32.755Z,100261.75
2022-09-11T10:31:06.460Z,100300.38
2022-09-11T10:33:38.259Z,100296.69
2022-09-11T10:36:11.341Z,100292.88
2022-09-11T10:38:49.638Z,100270.91
2022-09-11T10:41:26.192Z,100290.06
2022-09-11T10:43:59.992Z,100280.50
2022-09-11T10:46:40.478Z,100280.72
2022-09-11T10:49:20.165Z,100280.03
2022-09-11T10:52:05.019Z,100271.13
2022-09-11T10:54:44.112Z,100273.97
2022-09-11T10:57:20.839Z,100264.91
2022-09-11T10:59:59.676Z,100244.81
2022-09-11T11:02:34.377Z,100272.53
2022-09-11T11:05:17.936Z,100269.69
2022-09-11T11:08:20.570Z,100261.84
2022-09-11T11:11:14.319Z,100260.56
2022-09-11T11:13:59.979Z,100251.22
2022-09-11T11:16:39.196Z,100251.63
2022-09-11T11:19:34.452Z,100244.06
2022-09-11T11:22:19.026Z,100248.53
2022-09-11T11:25:04.298Z,100259.72
2022-09-11T11:28:06.243Z,100249.72
2022-09-11T11:30:44.511Z,100250.63
2022-09-11T11:33:41.901Z,100236.16
2022-09-11T11:36:22.416Z,100248.78
2022-09-11T11:41:45.475Z,100247.28
2022-09-11T11:44:19.832Z,100242.66
2022-09-11T11:46:56.701Z,100241.13
2022-09-11T11:49:36.316Z,100232.78
2022-09-11T11:52:22.705Z,100234.31
2022-09-11T11:55:00.693Z,100237.13
2022-09-11T11:57:37.254Z,100207.16
2022-09-11T12:00:09.999Z,100232.72
2022-09-11T12:02:52.244Z,100223.56
2022-09-11T12:05:25.174Z,100226.13
2022-09-11T12:07:56.583Z,100232.06
2022-09-11T12:10:32.962Z,100222.81
2022-09-11T12:13:04.786Z,100214.69
2022-09-11T12:15:36.343Z,100209.69
2022-09-11T12:18:19.421Z,100215.09
2022-09-11T12:20:48.615Z,100210.63
2022-09-11T12:24:02.767Z,100206.81
2022-09-11T12:26:33.198Z,100215.44
2022-09-11T12:29:32.821Z,100174.78
2022-09-11T12:32:21.537Z,100207.16
2022-09-11T12:35:18.369Z,100210.06
2022-09-11T12:37:54.310Z,100213.38
2022-09-11T12:40:34.312Z,100209.97
2022-09-11T12:43:32.504Z,100207.47
2022-09-11T12:46:02.062Z,100205.50
2022-09-11T12:48:39.541Z,100190.44
2022-09-11T12:57:05.181Z,100196.50
2022-09-11T13:02:34.005Z,100187.13
2022-09-11T13:05:04.740Z,100181.25
2022-09-11T13:07:42.848Z,100184.66
2022-09-11T13:10:27.521Z,100156.22
2022-09-11T13:12:59.603Z,100186.03
2022-09-11T13:15:44.754Z,100179.97
2022-09-11T13:18:25.935Z,100158.44
2022-09-11T13:21:08.299Z,100185.84
2022-09-11T13:23:42.789Z,100181.09
2022-09-11T13:26:21.801Z,100179.22
2022-09-11T13:28:55.629Z,100178.47
2022-09-11T13:31:35.299Z,100179.50
2022-09-11T13:34:07.943Z,100172.06
2022-09-11T13:36:38.327Z,100177.41
2022-09-11T13:39:09.580Z,100175.88
2022-09-11T13:41:47.472Z,100176.03
2022-09-11T13:44:33.530Z,100175.94
2022-09-11T13:47:05.951Z,100172.75
2022-09-11T13:49:38.795Z,100169.47
2022-09-11T13:52:09.605Z,100145.72
2022-09-11T13:54:43.863Z,100167.22
2022-09-11T13:57:18.063Z,100155.25
2022-09-11T13:59:53.169Z,100163.91
2022-09-11T14:02:32.659Z,100163.19
2022-09-11T14:05:09.524Z,100160.88
2022-09-11T14:07:48.770Z,100155.94
2022-09-11T14:10:23.769Z,100148.47
2022-09-11T14:12:59.461Z,100149.25
2022-09-11T14:15:39.905Z,100151.88
2022-09-11T14:18:19.651Z,100138.47
2022-09-11T14:20:49.243Z,100152.59
2022-09-11T14:23:25.149Z,100130.47
2022-09-11T14:26:10.818Z,100143.22
2022-09-11T14:28:46.140Z,100141.75
2022-09-11T14:31:30.519Z,100148.03
2022-09-11T14:34:17.361Z,100134.47
2022-09-11T14:36:52.390Z,100144.16
2022-09-11T14:39:31.477Z,100128.94
2022-09-11T14:42:01.825Z,100137.00
2022-09-11T14:44:32.371Z,100135.53
2022-09-11T14:47:03.993Z,100107.53
2022-09-11T14:49:32.759Z,100128.66
2022-09-11T14:52:03.217Z,100130.13
2022-09-11T14:54:32.827Z,100118.22
2022-09-11T14:57:03.296Z,100102.22
2022-09-11T14:59:32.576Z,100120.41
2022-09-11T15:02:09.515Z,100122.31
2022-09-11T15:04:43.305Z,100116.97
2022-09-11T15:07:13.594Z,100111.38
2022-09-11T15:09:43.142Z,100112.44
2022-09-11T15:12:19.276Z,100070.66
2022-09-11T15:14:56.863Z,100104.31
2022-09-11T15:17:30.901Z,100105.44
2022-09-11T15:20:00.838Z,100107.31
2022-09-11T15:22:30.900Z,100098.75
2022-09-11T15:25:05.180Z,100101.50
2022-09-11T15:27:34.503Z,100081.00
2022-09-11T15:30:03.592Z,100096.50
2022-09-11T15:32:35.096Z,100093.09
2022-09-11T15:35:05.180Z,100091.47
2022-09-11T15:37:35.523Z,100094.13
2022-09-11T15:40:05.209Z,100036.84
2022-09-11T15:42:39.533Z,100085.75
2022-09-11T15:45:12.925Z,100083.22
2022-09-11T15:47:44.104Z,100080.69
2022-09-11T15:50:17.708Z,100084.25
2022-09-11T15:52:48.205Z,100085.22
2022-09-11T15:55:19.335Z,100083.47
2022-09-11T15:57:48.560Z,100078.47
2022-09-11T16:00:17.983Z,100082.13
2022-09-11T16:02:53.762Z,100087.41
2022-09-11T16:05:22.835Z,100076.28
2022-09-11T16:07:52.413Z,100085.97
2022-09-11T16:10:21.659Z,100080.88
2022-09-11T16:12:52.083Z,100089.56
2022-09-11T16:15:22.958Z,100075.81
2022-09-11T16:17:54.306Z,100084.38
2022-09-11T16:20:24.775Z,100074.94
2022-09-11T16:22:54.363Z,100085.31
2022-09-11T16:25:23.478Z,100081.06
2022-09-11T16:27:53.049Z,100066.44
2022-09-11T16:33:14.153Z,100087.00
2022-09-11T16:35:43.353Z,100077.47
2022-09-11T16:38:12.563Z,100088.78
2022-09-11T16:40:42.026Z,100089.66
2022-09-11T16:43:11.631Z,100090.53
2022-09-11T16:45:43.741Z,100086.28
2022-09-11T16:48:16.669Z,100095.78
2022-09-11T16:50:55.175Z,100094.97
2022-09-11T16:53:25.020Z,100090.69
2022-09-11T16:55:55.054Z,100089.88
2022-09-11T16:58:24.892Z,100079.69
2022-09-11T17:00:54.228Z,100096.03
2022-09-11T17:03:25.587Z,100090.06
2022-09-11T17:05:57.253Z,100089.22
2022-09-11T17:08:26.442Z,100093.53
2022-09-11T17:10:57.848Z,100091.84
2022-09-11T17:13:28.490Z,100093.53
2022-09-11T17:16:03.393Z,100097.88
2022-09-11T17:18:35.350Z,100094.53
2022-09-11T17:21:07.242Z,100095.34
2022-09-11T17:23:38.865Z,100090.06
2022-09-11T17:26:09.290Z,100103.16
2022-09-11T17:28:39.103Z,100097.13
2022-09-11T17:31:10.086Z,100102.34
2022-09-11T17:33:41.921Z,100104.94
2022-09-11T17:36:13.025Z,100083.47
2022-09-11T17:38:49.692Z,100097.25
2022-09-11T17:41:20.601Z,100096.44
2022-09-11T17:43:50.548Z,100098.19
2022-09-11T17:46:21.729Z,100099.94
2022-09-11T17:48:52.994Z,100094.81
2022-09-11T17:51:24.798Z,100099.16
2022-09-11T17:53:54.982Z,100096.47
2022-09-11T17:56:31.869Z,100084.59
2022-09-11T17:59:03.082Z,100106.22
2022-09-11T18:01:32.383Z,100097.66
2022-09-11T18:04:05.555Z,100102.88
2022-09-11T18:06:41.475Z,100099.47
2022-09-11T18:09:15.657Z,100103.84
2022-09-11T18:11:47.266Z,100097.84
2022-09-11T18:14:23.200Z,100099.63
2022-09-11T18:16:57.695Z,100080.75
2022-09-11T18:19:35.042Z,100099.66
2022-09-11T18:22:04.352Z,100079.03
2022-09-11T18:24:39.803Z,100097.00
2022-09-11T18:27:11.256Z,100094.41
2022-09-11T18:29:45.597Z,100082.31
2022-09-11T18:32:21.761Z,100092.50
2022-09-11T18:34:59.868Z,100090.72
2022-09-11T18:37:29.767Z,100092.47
2022-09-11T18:40:00.018Z,100093.41
2022-09-11T18:42:29.658Z,100101.25
2022-09-11T18:44:59.949Z,100090.06
2022-09-11T18:47:30.344Z,100097.88
2022-09-11T18:50:03.504Z,100090.13
2022-09-11T18:52:33.974Z,100097.97
2022-09-11T18:55:03.473Z,100097.13
2022-09-11T18:57:38.627Z,100097.19
2022-09-11T19:00:13.951Z,100094.53
2022-09-11T19:02:43.294Z,100095.41
2022-09-11T19:05:15.642Z,100095.41
2022-09-11T19:07:46.185Z,100074.84
2022-09-11T19:10:16.125Z,100096.22
2022-09-11T19:12:45.577Z,100075.47
2022-09-11T19:15:16.396Z,100081.44
2022-09-11T19:17:47.900Z,100081.44
2022-09-11T19:20:20.762Z,100077.09
2022-09-11T19:22:50.008Z,100073.59
2022-09-11T19:25:19.342Z,100078.72
2022-09-11T19:28:00.318Z,100079.63
2022-09-11T19:30:29.431Z,100073.56
2022-09-11T19:33:00.452Z,100084.84
2022-09-11T19:35:31.719Z,100083.97
2022-09-11T19:38:01.313Z,100034.31
2022-09-11T19:40:30.552Z,100098.84
2022-09-11T19:43:04.680Z,100085.09
2022-09-11T19:45:39.268Z,100080.81
2022-09-11T19:48:14.352Z,100074.88
2022-09-11T19:50:47.608Z,100076.59
2022-09-11T19:53:21.852Z,100082.66
2022-09-11T19:55:55.501Z,100072.31
2022-09-11T19:58:25.572Z,100076.63
2022-09-11T20:00:55.108Z,100074.91
2022-09-11T20:03:30.238Z,100070.69
2022-09-11T20:06:02.347Z,100074.97
2022-09-11T20:08:31.935Z,100072.41
2022-09-11T20:11:03.271Z,100052.72
2022-09-11T20:13:37.635Z,100073.34
2022-09-11T20:16:14.528Z,100057.03
2022-09-11T20:18:44.174Z,100077.72
2022-09-11T20:21:17.231Z,100073.41
2022-09-11T20:23:47.440Z,100063.03
2022-09-11T20:26:23.832Z,100066.53
2022-09-11T20:28:57.535Z,100064.00
2022-09-11T20:31:29.424Z,100064.00
2022-09-11T20:34:04.231Z,100067.47
2022-09-11T20:36:35.451Z,100066.59
2022-09-11T20:39:04.667Z,100056.31
2022-09-11T20:41:35.345Z,100050.38
2022-09-11T20:44:05.846Z,100057.22
2022-09-11T20:46:43.080Z,100058.97
2022-09-11T20:49:17.986Z,100034.06
2022-09-11T20:51:49.222Z,100053.81
2022-09-11T20:54:18.411Z,100053.78
2022-09-11T20:56:47.914Z,100038.31
2022-09-11T20:59:17.130Z,100040.88
2022-09-11T21:01:46.363Z,100047.72
2022-09-11T21:04:15.513Z,100043.44
2022-09-11T21:06:44.978Z,100050.31
2022-09-11T21:09:16.906Z,100048.59
2022-09-11T21:11:45.717Z,100046.75
2022-09-11T21:14:16.751Z,100051.16
2022-09-11T21:16:46.152Z,100049.41
2022-09-11T21:19:15.348Z,100053.78
2022-09-11T21:21:44.427Z,100030.59
2022-09-11T21:24:21.074Z,100050.34
2022-09-11T21:26:50.148Z,100049.50
2022-09-11T21:29:19.185Z,100042.59
2022-09-11T21:31:48.406Z,100045.19
2022-09-11T21:34:18.077Z,100041.75
2022-09-11T21:36:54.029Z,100045.19
2022-09-11T21:39:24.972Z,100045.19
2022-09-11T21:44:39.243Z,100037.44
2022-09-11T21:47:08.380Z,100016.03
2022-09-11T21:49:37.630Z,100039.22
2022-09-11T21:52:07.218Z,100047.03
2022-09-11T21:54:38.801Z,100053.13
2022-09-11T21:57:08.054Z,100048.78
2022-09-11T21:59:37.107Z,100037.56
2022-09-11T22:02:08.364Z,100046.19
2022-09-11T22:04:37.532Z,100039.38
2022-09-11T22:07:06.700Z,100036.72
2022-09-11T22:09:37.949Z,100047.94
2022-09-11T22:12:12.553Z,100048.75
2022-09-11T22:14:43.853Z,100031.53
2022-09-11T22:17:13.428Z,100039.25
2022-09-11T22:19:45.489Z,100047.00
2022-09-11T22:22:14.825Z,100042.72
2022-09-11T22:24:46.219Z,100048.75
2022-09-11T22:27:20.491Z,100045.38
2022-09-11T22:29:49.641Z,100057.44
2022-09-11T22:32:18.629Z,100055.69
2022-09-11T22:34:57.740Z,100057.41
2022-09-11T22:37:26.974Z,100052.28
2022-09-11T22:39:58.071Z,100055.75
2022-09-11T22:42:27.222Z,100053.22
2022-09-11T22:44:56.361Z,100055.81
2022-09-11T22:47:32.846Z,100024.88
2022-09-11T22:50:02.000Z,100051.56
2022-09-11T22:52:32.746Z,100055.88
2022-09-11T22:55:03.976Z,100048.94
2022-09-11T22:57:33.391Z,100048.94
2022-09-11T23:00:02.518Z,100052.44
2022-09-11T23:02:33.811Z,100052.44
2022-09-11T23:05:22.105Z,100048.09
2022-09-11T23:07:56.575Z,100055.88
2022-09-11T23:10:27.719Z,100055.88
2022-09-11T23:12:56.948Z,100053.28
2022-09-11T23:15:31.422Z,100047.25
2022-09-11T23:18:00.565Z,100029.28
2022-09-11T23:20:31.598Z,100055.03
2022-09-11T23:23:01.146Z,100050.69
2022-09-11T23:25:34.743Z,100059.28
2022-09-11T23:30:40.564Z,100041.19
2022-09-11T23:33:09.776Z,100039.47
2022-09-11T23:35:39.930Z,100050.59
2022-09-11T23:38:10.037Z,100048.91
2022-09-11T23:40:41.344Z,100049.78
2022-09-11T23:43:10.514Z,100049.81
2022-09-11T23:45:39.623Z,100043.78
2022-09-11T23:48:13.814Z,100047.25
2022-09-11T23:50:42.976Z,100044.69
2022-09-11T23:53:12.001Z,100036.06
2022-09-11T23:58:19.659Z,100039.56
